sensor_id;sensor_type;location;lat;lon;timestamp;P1;durP1;ratioP1;P2;durP2;ratioP2
15841;SDS011;8021;48.022;11.812;2023-03-01T00:01:00;0.70;;;0.70;;
15841;SDS011;8021;48.022;11.812;2023-03-01T00:03:28;0.50;;;0.50;;
15841;SDS011;8021;48.022;11.812;2023-03-01T00:05:55;0.70;;;0.70;;
15841;SDS011;8021;48.022;11.812;2023-03-01T00:08:24;0.80;;;0.80;;
15841;SDS011;8021;48.022;11.812;2023-03-01T00:10:59;0.60;;;0.60;;
15841;SDS011;8021;48.022;11.812;2023-03-01T00:13:27;0.70;;;0.70;;
15841;SDS011;8021;48.022;11.812;2023-03-01T00:15:54;0.70;;;0.70;;
15841;SDS011;8021;48.022;11.812;2023-03-01T00:18:22;0.60;;;0.60;;
15841;SDS011;8021;48.022;11.812;2023-03-01T00:20:50;0.60;;;0.60;;
15841;SDS011;8021;48.022;11.812;2023-03-01T00:23:18;0.60;;;0.60;;
15841;SDS011;8021;48.022;11.812;2023-03-01T00:25:47;0.60;;;0.60;;
15841;SDS011;8021;48.022;11.812;2023-03-01T00:28:14;0.60;;;0.60;;
15841;SDS011;8021;48.022;11.812;2023-03-01T00:30:42;0.50;;;0.50;;
15841;SDS011;8021;48.022;11.812;2023-03-01T00:33:09;0.60;;;0.60;;
15841;SDS011;8021;48.022;11.812;2023-03-01T00:35:37;0.70;;;0.70;;
15841;SDS011;8021;48.022;11.812;2023-03-01T00:38:05;0.40;;;0.40;;
15841;SDS011;8021;48.022;11.812;2023-03-01T00:40:33;0.50;;;0.50;;
15841;SDS011;8021;48.022;11.812;2023-03-01T00:43:02;0.67;;;0.67;;
15841;SDS011;8021;48.022;11.812;2023-03-01T00:45:30;0.70;;;0.70;;
15841;SDS011;8021;48.022;11.812;2023-03-01T00:47:58;0.80;;;0.80;;
15841;SDS011;8021;48.022;11.812;2023-03-01T00:50:26;0.80;;;0.80;;
15841;SDS011;8021;48.022;11.812;2023-03-01T00:52:54;0.80;;;0.80;;
15841;SDS011;8021;48.022;11.812;2023-03-01T00:55:22;0.60;;;0.60;;
15841;SDS011;8021;48.022;11.812;2023-03-01T00:57:50;0.60;;;0.60;;
15841;SDS011;8021;48.022;11.812;2023-03-01T01:00:19;0.60;;;0.60;;
15841;SDS011;8021;48.022;11.812;2023-03-01T01:02:47;0.70;;;0.70;;
15841;SDS011;8021;48.022;11.812;2023-03-01T01:05:15;0.60;;;0.60;;
15841;SDS011;8021;48.022;11.812;2023-03-01T01:07:47;0.60;;;0.60;;
15841;SDS011;8021;48.022;11.812;2023-03-01T01:10:14;0.67;;;0.67;;
15841;SDS011;8021;48.022;11.812;2023-03-01T01:12:43;0.60;;;0.60;;
15841;SDS011;8021;48.022;11.812;2023-03-01T01:15:11;0.80;;;0.80;;
15841;SDS011;8021;48.022;11.812;2023-03-01T01:17:41;0.67;;;0.67;;
15841;SDS011;8021;48.022;11.812;2023-03-01T01:20:10;0.60;;;0.60;;
15841;SDS011;8021;48.022;11.812;2023-03-01T01:22:37;0.60;;;0.60;;
15841;SDS011;8021;48.022;11.812;2023-03-01T01:25:05;0.70;;;0.70;;
15841;SDS011;8021;48.022;11.812;2023-03-01T01:27:32;0.80;;;0.80;;
15841;SDS011;8021;48.022;11.812;2023-03-01T01:30:00;0.60;;;0.60;;
15841;SDS011;8021;48.022;11.812;2023-03-01T01:32:27;0.57;;;0.57;;
15841;SDS011;8021;48.022;11.812;2023-03-01T01:34:56;0.60;;;0.60;;
15841;SDS011;8021;48.022;11.812;2023-03-01T01:37:24;0.60;;;0.60;;
15841;SDS011;8021;48.022;11.812;2023-03-01T01:39:57;0.70;;;0.70;;
15841;SDS011;8021;48.022;11.812;2023-03-01T01:42:25;0.60;;;0.60;;
15841;SDS011;8021;48.022;11.812;2023-03-01T01:47:38;0.60;;;0.60;;
15841;SDS011;8021;48.022;11.812;2023-03-01T01:50:08;0.80;;;0.80;;
15841;SDS011;8021;48.022;11.812;2023-03-01T01:52:41;0.63;;;0.63;;
15841;SDS011;8021;48.022;11.812;2023-03-01T01:55:10;0.70;;;0.70;;
15841;SDS011;8021;48.022;11.812;2023-03-01T01:57:39;0.70;;;0.70;;
15841;SDS011;8021;48.022;11.812;2023-03-01T02:00:07;0.70;;;0.70;;
15841;SDS011;8021;48.022;11.812;2023-03-01T02:02:44;0.73;;;0.73;;
15841;SDS011;8021;48.022;11.812;2023-03-01T02:05:15;0.70;;;0.70;;
15841;SDS011;8021;48.022;11.812;2023-03-01T02:07:44;0.80;;;0.80;;
15841;SDS011;8021;48.022;11.812;2023-03-01T02:10:13;0.50;;;0.50;;
15841;SDS011;8021;48.022;11.812;2023-03-01T02:12:40;0.60;;;0.60;;
15841;SDS011;8021;48.022;11.812;2023-03-01T02:15:08;0.70;;;0.70;;
15841;SDS011;8021;48.022;11.812;2023-03-01T02:17:36;0.60;;;0.60;;
15841;SDS011;8021;48.022;11.812;2023-03-01T02:20:07;0.90;;;0.90;;
15841;SDS011;8021;48.022;11.812;2023-03-01T02:22:38;0.70;;;0.70;;
15841;SDS011;8021;48.022;11.812;2023-03-01T02:25:08;0.80;;;0.80;;
15841;SDS011;8021;48.022;11.812;2023-03-01T02:27:40;0.53;;;0.53;;
15841;SDS011;8021;48.022;11.812;2023-03-01T02:30:11;0.70;;;0.70;;
15841;SDS011;8021;48.022;11.812;2023-03-01T02:32:39;0.70;;;0.70;;
15841;SDS011;8021;48.022;11.812;2023-03-01T02:35:08;0.80;;;0.80;;
15841;SDS011;8021;48.022;11.812;2023-03-01T02:37:36;0.50;;;0.50;;
15841;SDS011;8021;48.022;11.812;2023-03-01T02:40:04;0.80;;;0.80;;
15841;SDS011;8021;48.022;11.812;2023-03-01T02:42:40;0.60;;;0.60;;
15841;SDS011;8021;48.022;11.812;2023-03-01T02:45:12;0.73;;;0.73;;
15841;SDS011;8021;48.022;11.812;2023-03-01T02:47:39;0.80;;;0.80;;
15841;SDS011;8021;48.022;11.812;2023-03-01T02:50:18;0.50;;;0.50;;
15841;SDS011;8021;48.022;11.812;2023-03-01T02:52:46;0.70;;;0.70;;
15841;SDS011;8021;48.022;11.812;2023-03-01T02:55:15;0.60;;;0.60;;
15841;SDS011;8021;48.022;11.812;2023-03-01T02:57:44;0.60;;;0.60;;
15841;SDS011;8021;48.022;11.812;2023-03-01T03:00:14;0.60;;;0.60;;
15841;SDS011;8021;48.022;11.812;2023-03-01T03:02:46;0.77;;;0.77;;
15841;SDS011;8021;48.022;11.812;2023-03-01T03:05:17;0.50;;;0.50;;
15841;SDS011;8021;48.022;11.812;2023-03-01T03:07:45;0.70;;;0.70;;
15841;SDS011;8021;48.022;11.812;2023-03-01T03:10:13;0.60;;;0.60;;
15841;SDS011;8021;48.022;11.812;2023-03-01T03:12:41;0.60;;;0.60;;
15841;SDS011;8021;48.022;11.812;2023-03-01T03:15:09;0.60;;;0.60;;
15841;SDS011;8021;48.022;11.812;2023-03-01T03:17:41;0.50;;;0.50;;
15841;SDS011;8021;48.022;11.812;2023-03-01T03:20:12;0.60;;;0.60;;
15841;SDS011;8021;48.022;11.812;2023-03-01T03:22:45;0.70;;;0.70;;
15841;SDS011;8021;48.022;11.812;2023-03-01T03:25:12;0.50;;;0.50;;
15841;SDS011;8021;48.022;11.812;2023-03-01T03:27:40;0.60;;;0.60;;
15841;SDS011;8021;48.022;11.812;2023-03-01T03:30:09;0.60;;;0.60;;
15841;SDS011;8021;48.022;11.812;2023-03-01T03:32:40;0.83;;;0.83;;
15841;SDS011;8021;48.022;11.812;2023-03-01T03:35:08;0.70;;;0.70;;
15841;SDS011;8021;48.022;11.812;2023-03-01T03:37:36;0.77;;;0.77;;
15841;SDS011;8021;48.022;11.812;2023-03-01T03:40:37;0.60;;;0.60;;
15841;SDS011;8021;48.022;11.812;2023-03-01T03:43:07;0.63;;;0.63;;
15841;SDS011;8021;48.022;11.812;2023-03-01T03:45:35;0.70;;;0.70;;
15841;SDS011;8021;48.022;11.812;2023-03-01T03:48:04;0.70;;;0.70;;
15841;SDS011;8021;48.022;11.812;2023-03-01T03:50:40;0.63;;;0.63;;
15841;SDS011;8021;48.022;11.812;2023-03-01T03:53:08;0.63;;;0.63;;
15841;SDS011;8021;48.022;11.812;2023-03-01T03:55:36;0.70;;;0.70;;
15841;SDS011;8021;48.022;11.812;2023-03-01T03:58:08;0.80;;;0.80;;
15841;SDS011;8021;48.022;11.812;2023-03-01T04:01:00;0.60;;;0.60;;
15841;SDS011;8021;48.022;11.812;2023-03-01T04:03:29;0.70;;;0.70;;
15841;SDS011;8021;48.022;11.812;2023-03-01T04:05:58;0.60;;;0.60;;
15841;SDS011;8021;48.022;11.812;2023-03-01T04:08:26;0.67;;;0.67;;
15841;SDS011;8021;48.022;11.812;2023-03-01T04:10:57;0.57;;;0.57;;
15841;SDS011;8021;48.022;11.812;2023-03-01T04:13:25;0.80;;;0.80;;
15841;SDS011;8021;48.022;11.812;2023-03-01T04:15:53;0.70;;;0.70;;
15841;SDS011;8021;48.022;11.812;2023-03-01T04:18:21;0.80;;;0.80;;
15841;SDS011;8021;48.022;11.812;2023-03-01T04:20:50;0.70;;;0.70;;
15841;SDS011;8021;48.022;11.812;2023-03-01T04:23:21;0.73;;;0.73;;
15841;SDS011;8021;48.022;11.812;2023-03-01T04:25:49;0.70;;;0.70;;
15841;SDS011;8021;48.022;11.812;2023-03-01T04:28:20;0.83;;;0.83;;
15841;SDS011;8021;48.022;11.812;2023-03-01T04:30:48;0.60;;;0.60;;
15841;SDS011;8021;48.022;11.812;2023-03-01T04:33:15;0.70;;;0.70;;
15841;SDS011;8021;48.022;11.812;2023-03-01T04:35:42;0.90;;;0.90;;
15841;SDS011;8021;48.022;11.812;2023-03-01T04:38:11;0.70;;;0.70;;
15841;SDS011;8021;48.022;11.812;2023-03-01T04:40:39;0.70;;;0.70;;
15841;SDS011;8021;48.022;11.812;2023-03-01T04:43:09;0.87;;;0.87;;
15841;SDS011;8021;48.022;11.812;2023-03-01T04:45:36;0.70;;;0.70;;
15841;SDS011;8021;48.022;11.812;2023-03-01T04:48:04;0.60;;;0.60;;
15841;SDS011;8021;48.022;11.812;2023-03-01T04:50:33;0.60;;;0.60;;
15841;SDS011;8021;48.022;11.812;2023-03-01T04:53:00;0.80;;;0.80;;
15841;SDS011;8021;48.022;11.812;2023-03-01T04:55:29;0.80;;;0.80;;
15841;SDS011;8021;48.022;11.812;2023-03-01T04:57:57;0.60;;;0.60;;
15841;SDS011;8021;48.022;11.812;2023-03-01T05:00:25;0.80;;;0.80;;
15841;SDS011;8021;48.022;11.812;2023-03-01T05:02:53;0.70;;;0.70;;
15841;SDS011;8021;48.022;11.812;2023-03-01T05:05:21;0.80;;;0.80;;
15841;SDS011;8021;48.022;11.812;2023-03-01T05:07:52;0.80;;;0.80;;
15841;SDS011;8021;48.022;11.812;2023-03-01T05:10:20;0.70;;;0.70;;
15841;SDS011;8021;48.022;11.812;2023-03-01T05:12:48;0.60;;;0.60;;
15841;SDS011;8021;48.022;11.812;2023-03-01T05:15:18;0.90;;;0.90;;
15841;SDS011;8021;48.022;11.812;2023-03-01T05:17:48;0.80;;;0.80;;
15841;SDS011;8021;48.022;11.812;2023-03-01T05:20:15;0.80;;;0.80;;
15841;SDS011;8021;48.022;11.812;2023-03-01T05:22:43;0.60;;;0.60;;
15841;SDS011;8021;48.022;11.812;2023-03-01T05:25:10;0.80;;;0.80;;
15841;SDS011;8021;48.022;11.812;2023-03-01T05:27:40;0.83;;;0.83;;
15841;SDS011;8021;48.022;11.812;2023-03-01T05:30:10;0.80;;;0.80;;
15841;SDS011;8021;48.022;11.812;2023-03-01T05:32:41;0.80;;;0.80;;
15841;SDS011;8021;48.022;11.812;2023-03-01T05:35:13;0.77;;;0.77;;
15841;SDS011;8021;48.022;11.812;2023-03-01T05:38:05;0.77;;;0.77;;
15841;SDS011;8021;48.022;11.812;2023-03-01T05:40:33;0.60;;;0.60;;
15841;SDS011;8021;48.022;11.812;2023-03-01T05:43:00;0.60;;;0.60;;
15841;SDS011;8021;48.022;11.812;2023-03-01T05:45:32;0.93;;;0.93;;
15841;SDS011;8021;48.022;11.812;2023-03-01T05:48:00;0.70;;;0.70;;
15841;SDS011;8021;48.022;11.812;2023-03-01T05:50:28;0.70;;;0.70;;
15841;SDS011;8021;48.022;11.812;2023-03-01T05:52:57;0.80;;;0.80;;
15841;SDS011;8021;48.022;11.812;2023-03-01T05:55:25;0.70;;;0.70;;
15841;SDS011;8021;48.022;11.812;2023-03-01T05:57:54;0.83;;;0.83;;
15841;SDS011;8021;48.022;11.812;2023-03-01T06:00:22;0.63;;;0.63;;
15841;SDS011;8021;48.022;11.812;2023-03-01T06:06:08;0.70;;;0.70;;
15841;SDS011;8021;48.022;11.812;2023-03-01T06:08:35;0.70;;;0.70;;
15841;SDS011;8021;48.022;11.812;2023-03-01T06:11:03;0.80;;;0.80;;
15841;SDS011;8021;48.022;11.812;2023-03-01T06:13:31;0.73;;;0.73;;
15841;SDS011;8021;48.022;11.812;2023-03-01T06:15:58;0.70;;;0.70;;
15841;SDS011;8021;48.022;11.812;2023-03-01T06:18:26;0.80;;;0.80;;
15841;SDS011;8021;48.022;11.812;2023-03-01T06:20:54;0.70;;;0.70;;
15841;SDS011;8021;48.022;11.812;2023-03-01T06:23:23;0.80;;;0.80;;
15841;SDS011;8021;48.022;11.812;2023-03-01T06:25:50;0.87;;;0.87;;
15841;SDS011;8021;48.022;11.812;2023-03-01T06:28:18;0.77;;;0.77;;
15841;SDS011;8021;48.022;11.812;2023-03-01T06:30:45;0.80;;;0.80;;
15841;SDS011;8021;48.022;11.812;2023-03-01T06:33:13;0.70;;;0.70;;
15841;SDS011;8021;48.022;11.812;2023-03-01T06:35:40;0.80;;;0.80;;
15841;SDS011;8021;48.022;11.812;2023-03-01T06:38:08;0.80;;;0.80;;
15841;SDS011;8021;48.022;11.812;2023-03-01T06:40:37;0.70;;;0.70;;
15841;SDS011;8021;48.022;11.812;2023-03-01T06:43:05;0.70;;;0.70;;
15841;SDS011;8021;48.022;11.812;2023-03-01T06:45:33;0.70;;;0.70;;
15841;SDS011;8021;48.022;11.812;2023-03-01T06:48:04;0.70;;;0.70;;
15841;SDS011;8021;48.022;11.812;2023-03-01T06:50:31;0.67;;;0.67;;
15841;SDS011;8021;48.022;11.812;2023-03-01T06:52:59;1.03;;;1.03;;
15841;SDS011;8021;48.022;11.812;2023-03-01T06:55:26;0.80;;;0.80;;
15841;SDS011;8021;48.022;11.812;2023-03-01T06:57:55;0.73;;;0.73;;
15841;SDS011;8021;48.022;11.812;2023-03-01T07:00:23;0.60;;;0.60;;
15841;SDS011;8021;48.022;11.812;2023-03-01T07:02:51;0.70;;;0.70;;
15841;SDS011;8021;48.022;11.812;2023-03-01T07:05:18;0.60;;;0.60;;
15841;SDS011;8021;48.022;11.812;2023-03-01T07:07:46;0.63;;;0.63;;
15841;SDS011;8021;48.022;11.812;2023-03-01T07:10:13;0.80;;;0.80;;
15841;SDS011;8021;48.022;11.812;2023-03-01T07:12:41;0.70;;;0.70;;
15841;SDS011;8021;48.022;11.812;2023-03-01T07:15:10;0.60;;;0.60;;
15841;SDS011;8021;48.022;11.812;2023-03-01T07:17:38;0.80;;;0.80;;
15841;SDS011;8021;48.022;11.812;2023-03-01T07:20:05;0.90;;;0.90;;
15841;SDS011;8021;48.022;11.812;2023-03-01T07:22:33;0.60;;;0.60;;
15841;SDS011;8021;48.022;11.812;2023-03-01T07:25:00;0.90;;;0.90;;
15841;SDS011;8021;48.022;11.812;2023-03-01T07:27:28;0.80;;;0.80;;
15841;SDS011;8021;48.022;11.812;2023-03-01T07:29:55;0.70;;;0.70;;
15841;SDS011;8021;48.022;11.812;2023-03-01T07:32:24;0.73;;;0.73;;
15841;SDS011;8021;48.022;11.812;2023-03-01T07:34:52;0.70;;;0.70;;
15841;SDS011;8021;48.022;11.812;2023-03-01T07:37:19;0.70;;;0.70;;
15841;SDS011;8021;48.022;11.812;2023-03-01T07:39:47;0.63;;;0.63;;
15841;SDS011;8021;48.022;11.812;2023-03-01T07:42:14;0.70;;;0.70;;
15841;SDS011;8021;48.022;11.812;2023-03-01T07:44:42;0.70;;;0.70;;
15841;SDS011;8021;48.022;11.812;2023-03-01T07:47:09;0.63;;;0.63;;
15841;SDS011;8021;48.022;11.812;2023-03-01T07:49:38;0.87;;;0.87;;
15841;SDS011;8021;48.022;11.812;2023-03-01T07:52:05;0.80;;;0.80;;
15841;SDS011;8021;48.022;11.812;2023-03-01T07:54:33;0.70;;;0.70;;
15841;SDS011;8021;48.022;11.812;2023-03-01T07:57:00;0.60;;;0.60;;
15841;SDS011;8021;48.022;11.812;2023-03-01T07:59:28;0.90;;;0.90;;
15841;SDS011;8021;48.022;11.812;2023-03-01T08:01:55;0.63;;;0.63;;
15841;SDS011;8021;48.022;11.812;2023-03-01T08:04:23;0.80;;;0.80;;
15841;SDS011;8021;48.022;11.812;2023-03-01T08:06:54;0.80;;;0.80;;
15841;SDS011;8021;48.022;11.812;2023-03-01T08:09:22;0.80;;;0.80;;
15841;SDS011;8021;48.022;11.812;2023-03-01T08:11:49;0.70;;;0.70;;
15841;SDS011;8021;48.022;11.812;2023-03-01T08:14:17;0.60;;;0.60;;
15841;SDS011;8021;48.022;11.812;2023-03-01T08:16:44;0.60;;;0.60;;
15841;SDS011;8021;48.022;11.812;2023-03-01T08:19:12;0.63;;;0.63;;
15841;SDS011;8021;48.022;11.812;2023-03-01T08:21:39;0.67;;;0.67;;
15841;SDS011;8021;48.022;11.812;2023-03-01T08:24:08;0.63;;;0.63;;
15841;SDS011;8021;48.022;11.812;2023-03-01T08:26:37;0.73;;;0.73;;
15841;SDS011;8021;48.022;11.812;2023-03-01T08:29:04;0.80;;;0.80;;
15841;SDS011;8021;48.022;11.812;2023-03-01T08:31:32;0.73;;;0.73;;
15841;SDS011;8021;48.022;11.812;2023-03-01T08:34:02;0.60;;;0.60;;
15841;SDS011;8021;48.022;11.812;2023-03-01T08:36:31;0.73;;;0.73;;
15841;SDS011;8021;48.022;11.812;2023-03-01T08:38:59;0.60;;;0.60;;
15841;SDS011;8021;48.022;11.812;2023-03-01T08:41:28;0.80;;;0.80;;
15841;SDS011;8021;48.022;11.812;2023-03-01T08:43:56;0.57;;;0.57;;
15841;SDS011;8021;48.022;11.812;2023-03-01T08:46:26;0.60;;;0.60;;
15841;SDS011;8021;48.022;11.812;2023-03-01T08:48:53;0.60;;;0.60;;
15841;SDS011;8021;48.022;11.812;2023-03-01T08:51:21;0.70;;;0.70;;
15841;SDS011;8021;48.022;11.812;2023-03-01T08:53:49;0.60;;;0.60;;
15841;SDS011;8021;48.022;11.812;2023-03-01T08:56:17;0.80;;;0.80;;
15841;SDS011;8021;48.022;11.812;2023-03-01T08:58:47;0.50;;;0.50;;
15841;SDS011;8021;48.022;11.812;2023-03-01T09:01:40;0.63;;;0.63;;
15841;SDS011;8021;48.022;11.812;2023-03-01T09:04:09;0.60;;;0.60;;
15841;SDS011;8021;48.022;11.812;2023-03-01T09:06:36;0.60;;;0.60;;
15841;SDS011;8021;48.022;11.812;2023-03-01T09:09:05;0.80;;;0.80;;
15841;SDS011;8021;48.022;11.812;2023-03-01T09:11:34;0.60;;;0.60;;
15841;SDS011;8021;48.022;11.812;2023-03-01T09:14:04;0.67;;;0.67;;
15841;SDS011;8021;48.022;11.812;2023-03-01T09:16:32;0.50;;;0.50;;
15841;SDS011;8021;48.022;11.812;2023-03-01T09:19:02;0.60;;;0.60;;
15841;SDS011;8021;48.022;11.812;2023-03-01T09:21:29;0.50;;;0.50;;
15841;SDS011;8021;48.022;11.812;2023-03-01T09:24:06;0.50;;;0.50;;
15841;SDS011;8021;48.022;11.812;2023-03-01T09:26:38;0.60;;;0.60;;
15841;SDS011;8021;48.022;11.812;2023-03-01T09:29:07;0.60;;;0.60;;
15841;SDS011;8021;48.022;11.812;2023-03-01T09:31:36;0.60;;;0.60;;
15841;SDS011;8021;48.022;11.812;2023-03-01T09:34:03;0.70;;;0.70;;
15841;SDS011;8021;48.022;11.812;2023-03-01T09:36:56;0.63;;;0.63;;
15841;SDS011;8021;48.022;11.812;2023-03-01T09:39:24;0.60;;;0.60;;
15841;SDS011;8021;48.022;11.812;2023-03-01T09:41:54;0.70;;;0.70;;
15841;SDS011;8021;48.022;11.812;2023-03-01T09:44:29;0.60;;;0.60;;
15841;SDS011;8021;48.022;11.812;2023-03-01T09:46:58;0.70;;;0.70;;
15841;SDS011;8021;48.022;11.812;2023-03-01T09:49:27;0.50;;;0.50;;
15841;SDS011;8021;48.022;11.812;2023-03-01T09:51:58;0.60;;;0.60;;
15841;SDS011;8021;48.022;11.812;2023-03-01T09:54:26;0.60;;;0.60;;
15841;SDS011;8021;48.022;11.812;2023-03-01T09:56:59;0.60;;;0.60;;
15841;SDS011;8021;48.022;11.812;2023-03-01T09:59:36;0.70;;;0.70;;
15841;SDS011;8021;48.022;11.812;2023-03-01T10:02:11;0.55;;;0.55;;
15841;SDS011;8021;48.022;11.812;2023-03-01T10:04:44;0.43;;;0.43;;
15841;SDS011;8021;48.022;11.812;2023-03-01T10:07:15;0.47;;;0.47;;
15841;SDS011;8021;48.022;11.812;2023-03-01T10:09:44;0.70;;;0.70;;
15841;SDS011;8021;48.022;11.812;2023-03-01T10:12:13;0.43;;;0.43;;
15841;SDS011;8021;48.022;11.812;2023-03-01T10:14:46;0.77;;;0.77;;
15841;SDS011;8021;48.022;11.812;2023-03-01T10:17:19;0.50;;;0.50;;
15841;SDS011;8021;48.022;11.812;2023-03-01T10:19:46;0.70;;;0.70;;
15841;SDS011;8021;48.022;11.812;2023-03-01T10:22:15;0.60;;;0.60;;
15841;SDS011;8021;48.022;11.812;2023-03-01T10:24:43;0.52;;;0.52;;
15841;SDS011;8021;48.022;11.812;2023-03-01T10:27:14;0.70;;;0.70;;
15841;SDS011;8021;48.022;11.812;2023-03-01T10:29:46;0.50;;;0.50;;
15841;SDS011;8021;48.022;11.812;2023-03-01T10:32:16;0.60;;;0.60;;
15841;SDS011;8021;48.022;11.812;2023-03-01T10:34:44;0.40;;;0.40;;
15841;SDS011;8021;48.022;11.812;2023-03-01T10:37:12;0.60;;;0.60;;
15841;SDS011;8021;48.022;11.812;2023-03-01T10:39:54;0.60;;;0.60;;
15841;SDS011;8021;48.022;11.812;2023-03-01T10:42:22;0.47;;;0.47;;
15841;SDS011;8021;48.022;11.812;2023-03-01T10:44:54;0.50;;;0.50;;
15841;SDS011;8021;48.022;11.812;2023-03-01T10:47:22;0.60;;;0.60;;
15841;SDS011;8021;48.022;11.812;2023-03-01T10:49:55;0.50;;;0.50;;
15841;SDS011;8021;48.022;11.812;2023-03-01T10:52:23;0.40;;;0.40;;
15841;SDS011;8021;48.022;11.812;2023-03-01T10:54:52;0.50;;;0.50;;
15841;SDS011;8021;48.022;11.812;2023-03-01T10:57:33;0.52;;;0.52;;
15841;SDS011;8021;48.022;11.812;2023-03-01T11:00:16;0.50;;;0.50;;
15841;SDS011;8021;48.022;11.812;2023-03-01T11:02:46;0.50;;;0.50;;
15841;SDS011;8021;48.022;11.812;2023-03-01T11:05:19;0.40;;;0.40;;
15841;SDS011;8021;48.022;11.812;2023-03-01T11:07:47;0.47;;;0.47;;
15841;SDS011;8021;48.022;11.812;2023-03-01T11:10:17;0.40;;;0.40;;
15841;SDS011;8021;48.022;11.812;2023-03-01T11:12:44;0.57;;;0.57;;
15841;SDS011;8021;48.022;11.812;2023-03-01T11:15:21;0.47;;;0.47;;
15841;SDS011;8021;48.022;11.812;2023-03-01T11:17:49;0.45;;;0.45;;
15841;SDS011;8021;48.022;11.812;2023-03-01T11:20:25;0.40;;;0.40;;
15841;SDS011;8021;48.022;11.812;2023-03-01T11:22:56;0.47;;;0.47;;
15841;SDS011;8021;48.022;11.812;2023-03-01T11:25:25;0.50;;;0.50;;
15841;SDS011;8021;48.022;11.812;2023-03-01T11:27:54;0.60;;;0.60;;
15841;SDS011;8021;48.022;11.812;2023-03-01T11:30:24;0.50;;;0.50;;
15841;SDS011;8021;48.022;11.812;2023-03-01T11:33:01;0.32;;;0.32;;
15841;SDS011;8021;48.022;11.812;2023-03-01T11:35:30;0.40;;;0.40;;
15841;SDS011;8021;48.022;11.812;2023-03-01T11:38:02;0.35;;;0.35;;
15841;SDS011;8021;48.022;11.812;2023-03-01T11:40:33;0.47;;;0.47;;
15841;SDS011;8021;48.022;11.812;2023-03-01T11:43:04;0.40;;;0.40;;
15841;SDS011;8021;48.022;11.812;2023-03-01T11:45:37;0.40;;;0.40;;
15841;SDS011;8021;48.022;11.812;2023-03-01T11:48:14;0.40;;;0.40;;
15841;SDS011;8021;48.022;11.812;2023-03-01T11:50:48;0.30;;;0.30;;
15841;SDS011;8021;48.022;11.812;2023-03-01T11:53:20;0.40;;;0.40;;
15841;SDS011;8021;48.022;11.812;2023-03-01T11:55:57;0.47;;;0.47;;
15841;SDS011;8021;48.022;11.812;2023-03-01T11:58:34;0.30;;;0.30;;
15841;SDS011;8021;48.022;11.812;2023-03-01T12:01:18;0.35;;;0.35;;
15841;SDS011;8021;48.022;11.812;2023-03-01T12:03:54;0.40;;;0.40;;
15841;SDS011;8021;48.022;11.812;2023-03-01T12:06:29;0.50;;;0.50;;
15841;SDS011;8021;48.022;11.812;2023-03-01T12:09:02;0.50;;;0.50;;
15841;SDS011;8021;48.022;11.812;2023-03-01T12:11:35;0.50;;;0.50;;
15841;SDS011;8021;48.022;11.812;2023-03-01T12:14:10;0.40;;;0.40;;
15841;SDS011;8021;48.022;11.812;2023-03-01T12:16:50;0.60;;;0.60;;
15841;SDS011;8021;48.022;11.812;2023-03-01T12:19:28;0.32;;;0.32;;
15841;SDS011;8021;48.022;11.812;2023-03-01T12:22:02;0.40;;;0.40;;
15841;SDS011;8021;48.022;11.812;2023-03-01T12:24:38;0.40;;;0.40;;
15841;SDS011;8021;48.022;11.812;2023-03-01T12:27:14;0.50;;;0.50;;
15841;SDS011;8021;48.022;11.812;2023-03-01T12:29:46;0.45;;;0.45;;
15841;SDS011;8021;48.022;11.812;2023-03-01T12:32:27;0.50;;;0.50;;
15841;SDS011;8021;48.022;11.812;2023-03-01T12:37:47;0.50;;;0.50;;
15841;SDS011;8021;48.022;11.812;2023-03-01T12:40:33;0.40;;;0.40;;
15841;SDS011;8021;48.022;11.812;2023-03-01T12:43:08;0.35;;;0.35;;
15841;SDS011;8021;48.022;11.812;2023-03-01T12:48:31;0.30;;;0.30;;
15841;SDS011;8021;48.022;11.812;2023-03-01T12:51:03;0.40;;;0.40;;
15841;SDS011;8021;48.022;11.812;2023-03-01T12:53:32;0.38;;;0.38;;
15841;SDS011;8021;48.022;11.812;2023-03-01T12:56:04;0.30;;;0.30;;
15841;SDS011;8021;48.022;11.812;2023-03-01T12:58:33;0.40;;;0.40;;
15841;SDS011;8021;48.022;11.812;2023-03-01T13:01:18;0.40;;;0.40;;
15841;SDS011;8021;48.022;11.812;2023-03-01T13:06:34;0.40;;;0.40;;
15841;SDS011;8021;48.022;11.812;2023-03-01T13:09:11;0.30;;;0.30;;
15841;SDS011;8021;48.022;11.812;2023-03-01T13:11:42;0.50;;;0.50;;
15841;SDS011;8021;48.022;11.812;2023-03-01T13:16:56;0.50;;;0.50;;
15841;SDS011;8021;48.022;11.812;2023-03-01T13:19:24;0.38;;;0.38;;
15841;SDS011;8021;48.022;11.812;2023-03-01T13:21:54;0.38;;;0.38;;
15841;SDS011;8021;48.022;11.812;2023-03-01T13:24:25;0.40;;;0.40;;
15841;SDS011;8021;48.022;11.812;2023-03-01T13:29:43;0.47;;;0.47;;
15841;SDS011;8021;48.022;11.812;2023-03-01T13:32:18;0.32;;;0.32;;
15841;SDS011;8021;48.022;11.812;2023-03-01T13:34:51;0.30;;;0.30;;
15841;SDS011;8021;48.022;11.812;2023-03-01T13:37:25;0.30;;;0.30;;
15841;SDS011;8021;48.022;11.812;2023-03-01T13:39:55;0.40;;;0.40;;
15841;SDS011;8021;48.022;11.812;2023-03-01T13:45:31;0.43;;;0.43;;
15841;SDS011;8021;48.022;11.812;2023-03-01T13:48:01;0.40;;;0.40;;
15841;SDS011;8021;48.022;11.812;2023-03-01T13:50:33;0.40;;;0.40;;
15841;SDS011;8021;48.022;11.812;2023-03-01T13:53:03;0.30;;;0.30;;
15841;SDS011;8021;48.022;11.812;2023-03-01T13:55:34;0.30;;;0.30;;
15841;SDS011;8021;48.022;11.812;2023-03-01T13:58:04;0.30;;;0.30;;
15841;SDS011;8021;48.022;11.812;2023-03-01T14:00:40;0.32;;;0.32;;
15841;SDS011;8021;48.022;11.812;2023-03-01T14:03:12;0.30;;;0.30;;
15841;SDS011;8021;48.022;11.812;2023-03-01T14:05:40;0.30;;;0.30;;
15841;SDS011;8021;48.022;11.812;2023-03-01T14:08:22;0.30;;;0.30;;
15841;SDS011;8021;48.022;11.812;2023-03-01T14:10:54;0.30;;;0.30;;
15841;SDS011;8021;48.022;11.812;2023-03-01T14:13:31;0.30;;;0.30;;
15841;SDS011;8021;48.022;11.812;2023-03-01T14:16:09;0.30;;;0.30;;
15841;SDS011;8021;48.022;11.812;2023-03-01T14:18:43;0.50;;;0.50;;
15841;SDS011;8021;48.022;11.812;2023-03-01T14:21:13;0.30;;;0.30;;
15841;SDS011;8021;48.022;11.812;2023-03-01T14:23:42;0.30;;;0.30;;
15841;SDS011;8021;48.022;11.812;2023-03-01T14:26:10;0.40;;;0.40;;
15841;SDS011;8021;48.022;11.812;2023-03-01T14:28:38;0.40;;;0.40;;
15841;SDS011;8021;48.022;11.812;2023-03-01T14:33:54;0.35;;;0.35;;
15841;SDS011;8021;48.022;11.812;2023-03-01T14:36:25;0.32;;;0.32;;
15841;SDS011;8021;48.022;11.812;2023-03-01T14:38:54;0.35;;;0.35;;
15841;SDS011;8021;48.022;11.812;2023-03-01T14:41:25;0.40;;;0.40;;
15841;SDS011;8021;48.022;11.812;2023-03-01T14:43:55;0.32;;;0.32;;
15841;SDS011;8021;48.022;11.812;2023-03-01T14:46:25;0.32;;;0.32;;
15841;SDS011;8021;48.022;11.812;2023-03-01T14:48:54;0.40;;;0.40;;
15841;SDS011;8021;48.022;11.812;2023-03-01T14:51:22;0.40;;;0.40;;
15841;SDS011;8021;48.022;11.812;2023-03-01T14:53:50;0.30;;;0.30;;
15841;SDS011;8021;48.022;11.812;2023-03-01T14:56:19;0.30;;;0.30;;
15841;SDS011;8021;48.022;11.812;2023-03-01T14:58:48;0.30;;;0.30;;
15841;SDS011;8021;48.022;11.812;2023-03-01T15:01:17;0.30;;;0.30;;
15841;SDS011;8021;48.022;11.812;2023-03-01T15:03:46;0.30;;;0.30;;
15841;SDS011;8021;48.022;11.812;2023-03-01T15:06:14;0.40;;;0.40;;
15841;SDS011;8021;48.022;11.812;2023-03-01T15:08:44;0.40;;;0.40;;
15841;SDS011;8021;48.022;11.812;2023-03-01T15:11:17;0.30;;;0.30;;
15841;SDS011;8021;48.022;11.812;2023-03-01T15:13:49;0.40;;;0.40;;
15841;SDS011;8021;48.022;11.812;2023-03-01T15:16:18;0.40;;;0.40;;
15841;SDS011;8021;48.022;11.812;2023-03-01T15:18:47;0.30;;;0.30;;
15841;SDS011;8021;48.022;11.812;2023-03-01T15:21:15;0.32;;;0.32;;
15841;SDS011;8021;48.022;11.812;2023-03-01T15:23:47;0.40;;;0.40;;
15841;SDS011;8021;48.022;11.812;2023-03-01T15:26:25;0.30;;;0.30;;
15841;SDS011;8021;48.022;11.812;2023-03-01T15:28:54;0.30;;;0.30;;
15841;SDS011;8021;48.022;11.812;2023-03-01T15:31:25;0.30;;;0.30;;